createdAt,value
2017-08-05T00:00:06.202Z,59.10
2017-08-05T00:02:34.528Z,58.40
2017-08-05T00:05:02.823Z,58.20
2017-08-05T00:07:31.140Z,57.90
2017-08-05T00:09:59.439Z,58.20
2017-08-05T00:12:27.729Z,58.90
2017-08-05T00:14:56.054Z,58.80
2017-08-05T00:17:24.338Z,58.80
2017-08-05T00:19:52.621Z,59.10
2017-08-05T00:22:20.947Z,59.50
2017-08-05T00:24:49.236Z,59.70
2017-08-05T00:27:17.553Z,61.30
2017-08-05T00:29:45.892Z,60.80
2017-08-05T00:32:14.949Z,61.20
2017-08-05T00:34:43.239Z,61.20
2017-08-05T00:37:11.551Z,61.30
2017-08-05T00:39:39.928Z,61.80
2017-08-05T00:42:08.976Z,63.00
2017-08-05T00:44:37.283Z,62.90
2017-08-05T00:47:05.584Z,63.20
2017-08-05T00:49:33.903Z,63.10
2017-08-05T00:52:02.219Z,63.50
2017-08-05T00:54:30.512Z,63.40
2017-08-05T00:56:58.806Z,63.70
2017-08-05T00:59:27.137Z,64.90
2017-08-05T01:01:55.432Z,64.90
2017-08-05T01:04:23.718Z,65.10
2017-08-05T01:06:52.065Z,64.80
2017-08-05T01:09:21.116Z,65.40
2017-08-05T01:11:49.467Z,65.30
2017-08-05T01:14:17.752Z,65.80
2017-08-05T01:16:46.043Z,66.00
2017-08-05T01:19:14.355Z,65.70
2017-08-05T01:21:42.656Z,65.90
2017-08-05T01:24:11.634Z,66.00
2017-08-05T01:26:39.972Z,65.60
2017-08-05T01:29:08.256Z,66.00
2017-08-05T01:31:36.554Z,66.40
2017-08-05T01:34:04.876Z,66.00
2017-08-05T01:36:33.207Z,65.80
2017-08-05T01:39:01.495Z,65.80
2017-08-05T01:41:29.787Z,66.50
2017-08-05T01:43:58.121Z,66.00
2017-08-05T01:46:26.404Z,65.90
2017-08-05T01:48:54.684Z,66.40
2017-08-05T01:51:23.013Z,66.20
2017-08-05T01:53:51.358Z,66.00
2017-08-05T01:56:19.646Z,66.00
2017-08-05T01:58:47.934Z,66.60
2017-08-05T02:01:16.242Z,66.60
2017-08-05T02:03:44.547Z,66.10
2017-08-05T02:06:13.606Z,66.70
2017-08-05T02:08:41.963Z,65.80
2017-08-05T02:11:10.283Z,66.00
2017-08-05T02:13:38.574Z,65.80
2017-08-05T02:16:06.893Z,64.70
2017-08-05T02:18:35.182Z,64.00
2017-08-05T02:21:04.283Z,64.60
2017-08-05T02:23:32.575Z,64.60
2017-08-05T02:26:00.871Z,65.00
2017-08-05T02:28:29.179Z,65.80
2017-08-05T02:30:57.499Z,66.60
2017-08-05T02:33:25.802Z,66.90
2017-08-05T02:35:54.179Z,67.30
2017-08-05T02:38:22.475Z,67.30
2017-08-05T02:40:50.769Z,67.50
2017-08-05T02:43:19.097Z,67.50
2017-08-05T02:45:47.374Z,67.30
2017-08-05T02:48:15.684Z,67.40
2017-08-05T02:50:43.969Z,67.80
2017-08-05T02:53:13.867Z,67.50
2017-08-05T02:55:42.160Z,67.20
2017-08-05T02:58:10.459Z,67.80
2017-08-05T03:00:38.790Z,67.90
2017-08-05T03:03:07.107Z,67.50
2017-08-05T03:05:35.382Z,67.60
2017-08-05T03:08:04.431Z,67.60
2017-08-05T03:10:32.739Z,67.50
2017-08-05T03:13:01.030Z,67.40
2017-08-05T03:15:29.343Z,67.40
2017-08-05T03:17:57.628Z,68.60
2017-08-05T03:20:25.946Z,68.20
2017-08-05T03:22:54.315Z,67.70
2017-08-05T03:25:22.609Z,68.10
2017-08-05T03:27:51.691Z,69.00
2017-08-05T03:30:20.003Z,69.00
2017-08-05T03:32:48.365Z,69.50
2017-08-05T03:35:16.643Z,68.90
2017-08-05T03:37:45.687Z,69.00
2017-08-05T03:40:14.020Z,69.00
2017-08-05T03:42:42.310Z,69.20
2017-08-05T03:45:10.598Z,69.50
2017-08-05T03:47:38.915Z,69.70
2017-08-05T03:50:07.199Z,69.20
2017-08-05T03:52:35.506Z,69.30
2017-08-05T03:55:03.784Z,69.40
2017-08-05T03:57:32.099Z,69.60
2017-08-05T04:00:00.382Z,70.00
2017-08-05T04:02:28.687Z,69.90
2017-08-05T04:04:57.004Z,69.60
2017-08-05T04:07:25.282Z,69.10
2017-08-05T04:09:54.357Z,68.90
2017-08-05T04:12:22.647Z,68.90
2017-08-05T04:14:50.959Z,68.90
2017-08-05T04:17:19.251Z,68.80
2017-08-05T04:19:47.593Z,68.50
2017-08-05T04:22:15.883Z,68.50
2017-08-05T04:24:44.174Z,68.40
2017-08-05T04:27:12.492Z,69.20
2017-08-05T04:29:40.799Z,68.90
2017-08-05T04:32:09.111Z,68.60
2017-08-05T04:34:37.421Z,68.80
2017-08-05T04:37:05.731Z,69.50
2017-08-05T04:39:34.011Z,69.60
2017-08-05T04:42:02.327Z,69.80
2017-08-05T04:44:30.620Z,69.50
2017-08-05T04:46:59.676Z,69.60
2017-08-05T04:49:27.985Z,69.50
2017-08-05T04:51:56.271Z,69.50
2017-08-05T04:54:24.581Z,69.30
2017-08-05T04:56:52.883Z,68.40
2017-08-05T04:59:21.211Z,68.10
2017-08-05T05:01:49.500Z,68.10
2017-08-05T05:04:17.822Z,67.50
2017-08-05T05:06:46.103Z,68.00
2017-08-05T05:09:14.388Z,68.30
2017-08-05T05:11:42.731Z,68.00
2017-08-05T05:14:11.032Z,68.10
2017-08-05T05:16:39.325Z,68.40
2017-08-05T05:19:07.635Z,67.70
2017-08-05T05:21:35.923Z,66.50
2017-08-05T05:24:04.215Z,65.20
2017-08-05T05:26:32.511Z,65.60
2017-08-05T05:29:00.815Z,65.00
2017-08-05T05:31:29.120Z,64.20
2017-08-05T05:33:57.405Z,63.60
2017-08-05T05:36:26.491Z,61.70
2017-08-05T05:38:54.776Z,61.60
2017-08-05T05:41:23.080Z,61.50
2017-08-05T05:43:51.410Z,61.00
2017-08-05T05:46:19.699Z,59.80
2017-08-05T05:48:47.982Z,59.70
2017-08-05T05:51:16.303Z,59.20
2017-08-05T05:53:44.593Z,56.10
2017-08-05T05:56:12.900Z,52.20
2017-08-05T05:58:41.207Z,50.10
2017-08-05T06:01:09.499Z,50.10
2017-08-05T06:03:37.810Z,49.20
2017-08-05T06:06:06.115Z,50.00
2017-08-05T06:08:34.427Z,50.80
2017-08-05T06:11:02.715Z,52.20
2017-08-05T06:13:31.032Z,53.40
2017-08-05T06:15:59.384Z,53.80
2017-08-05T06:18:27.672Z,54.70
2017-08-05T06:20:56.719Z,55.30
2017-08-05T06:23:25.031Z,55.30
2017-08-05T06:25:53.339Z,55.60
2017-08-05T06:28:21.659Z,55.30
2017-08-05T06:30:49.956Z,53.70
2017-08-05T06:33:18.291Z,52.80
2017-08-05T06:35:46.595Z,51.60
2017-08-05T06:38:15.652Z,52.50
2017-08-05T06:40:43.963Z,52.40
2017-08-05T06:43:12.275Z,53.00
2017-08-05T06:45:41.924Z,46.00
2017-08-05T06:48:10.246Z,46.60
2017-08-05T06:50:39.812Z,40.40
2017-08-05T06:53:08.118Z,40.30
2017-08-05T06:55:36.443Z,52.60
2017-08-05T06:58:05.490Z,35.20
2017-08-05T07:00:33.776Z,35.30
2017-08-05T07:03:02.863Z,34.10
2017-08-05T07:05:31.935Z,33.30
2017-08-05T07:08:00.219Z,33.40
2017-08-05T07:10:28.543Z,32.90
2017-08-05T07:12:56.855Z,33.00
2017-08-05T07:15:25.163Z,34.40
2017-08-05T07:17:53.463Z,34.90
2017-08-05T07:20:21.789Z,35.20
2017-08-05T07:22:50.081Z,37.10
2017-08-05T07:25:19.128Z,37.20
2017-08-05T07:27:47.471Z,37.10
2017-08-05T07:30:15.763Z,34.60
2017-08-05T07:32:44.062Z,33.90
2017-08-05T07:35:12.387Z,33.60
2017-08-05T07:37:40.685Z,35.00
2017-08-05T07:40:09.007Z,35.00
2017-08-05T07:42:38.068Z,33.80
2017-08-05T07:45:06.344Z,33.80
2017-08-05T07:47:36.155Z,34.20
2017-08-05T07:50:04.483Z,34.60
2017-08-05T07:52:33.603Z,38.90
2017-08-05T07:55:01.891Z,38.90
2017-08-05T07:57:30.240Z,39.90
2017-08-05T07:59:58.551Z,41.40
2017-08-05T08:02:26.834Z,43.10
2017-08-05T08:04:55.163Z,43.00
2017-08-05T08:07:23.440Z,43.60
2017-08-05T08:09:51.759Z,43.40
2017-08-05T08:12:20.043Z,44.90
2017-08-05T08:14:48.356Z,45.40
2017-08-05T08:17:16.695Z,46.40
2017-08-05T08:19:45.758Z,52.30
2017-08-05T08:22:14.068Z,47.50
2017-08-05T08:24:42.387Z,48.10
2017-08-05T08:27:10.694Z,47.10
2017-08-05T08:29:39.024Z,45.40
2017-08-05T08:32:07.338Z,44.40
2017-08-05T08:34:36.442Z,41.70
2017-08-05T08:37:05.500Z,41.00
2017-08-05T08:39:34.567Z,39.70
2017-08-05T08:42:02.899Z,40.30
2017-08-05T08:44:31.193Z,41.10
2017-08-05T08:46:59.475Z,42.30
2017-08-05T08:49:27.787Z,42.40
2017-08-05T08:51:56.109Z,43.50
2017-08-05T08:54:25.903Z,43.10
2017-08-05T08:56:54.183Z,43.10
2017-08-05T08:59:22.464Z,42.20
2017-08-05T09:01:50.778Z,41.80
2017-08-05T09:04:19.105Z,42.60
2017-08-05T09:06:47.387Z,42.30
2017-08-05T09:09:15.717Z,42.10
2017-08-05T09:11:44.016Z,39.80
2017-08-05T09:14:12.311Z,38.80
2017-08-05T09:16:40.649Z,38.30
2017-08-05T09:19:08.930Z,36.90
2017-08-05T09:21:37.227Z,36.80
2017-08-05T09:24:05.555Z,35.90
2017-08-05T09:26:33.852Z,36.40
2017-08-05T09:29:03.350Z,35.10
2017-08-05T09:31:31.675Z,35.30
2017-08-05T09:33:59.951Z,35.60
2017-08-05T09:36:28.229Z,36.00
2017-08-05T09:38:57.309Z,36.80
2017-08-05T09:41:25.578Z,35.90
2017-08-05T09:43:53.900Z,35.40
2017-08-05T09:46:22.210Z,35.60
2017-08-05T09:48:50.482Z,35.50
2017-08-05T09:51:19.538Z,35.30
2017-08-05T09:53:47.860Z,35.90
2017-08-05T09:56:16.158Z,38.20
2017-08-05T09:58:44.453Z,39.30
2017-08-05T10:01:13.573Z,41.80
2017-08-05T10:03:42.447Z,41.50
2017-08-05T10:06:12.540Z,42.30
2017-08-05T10:08:41.655Z,44.10
2017-08-05T10:11:09.939Z,44.10
2017-08-05T10:13:38.215Z,45.70
2017-08-05T10:16:06.540Z,46.60
2017-08-05T10:18:34.818Z,47.70
2017-08-05T10:21:03.106Z,48.00
2017-08-05T10:23:31.428Z,48.90
2017-08-05T10:25:59.707Z,48.90
2017-08-05T10:28:27.988Z,49.00
2017-08-05T10:30:57.418Z,49.50
2017-08-05T10:33:25.720Z,50.20
2017-08-05T10:35:54.005Z,50.40
2017-08-05T10:38:22.328Z,50.60
2017-08-05T10:40:51.370Z,51.00
2017-08-05T10:43:20.762Z,51.70
2017-08-05T10:45:49.046Z,50.80
2017-08-05T10:48:17.341Z,51.50
2017-08-05T10:50:45.681Z,52.50
2017-08-05T10:53:13.990Z,52.90
2017-08-05T10:55:42.280Z,52.50
2017-08-05T10:58:11.401Z,52.80
2017-08-05T11:00:39.697Z,52.80
2017-08-05T11:03:07.997Z,52.30
2017-08-05T11:05:36.335Z,53.10
2017-08-05T11:08:04.639Z,53.60
2017-08-05T11:10:32.937Z,53.50
2017-08-05T11:13:01.280Z,51.80
2017-08-05T11:15:29.599Z,50.50
2017-08-05T11:17:57.883Z,50.40
2017-08-05T11:20:26.212Z,50.60
2017-08-05T11:22:54.486Z,51.30
2017-08-05T11:25:22.765Z,52.00
2017-08-05T11:27:51.101Z,52.10
2017-08-05T11:30:20.158Z,51.20
2017-08-05T11:32:48.436Z,51.80
2017-08-05T11:35:18.597Z,52.50
2017-08-05T11:37:46.872Z,52.50
2017-08-05T11:40:15.161Z,52.50
2017-08-05T11:42:43.498Z,53.50
2017-08-05T11:45:11.871Z,54.00
2017-08-05T11:47:40.171Z,53.30
2017-08-05T11:50:09.271Z,54.20
2017-08-05T11:52:38.352Z,53.90
2017-08-05T11:55:06.626Z,53.90
2017-08-05T11:57:35.719Z,53.00
2017-08-05T12:00:03.992Z,53.70
2017-08-05T12:02:32.307Z,53.80
2017-08-05T12:05:01.395Z,55.50
2017-08-05T12:07:29.678Z,56.10
2017-08-05T12:09:58.738Z,55.60
2017-08-05T12:12:27.092Z,55.10
2017-08-05T12:14:55.372Z,54.20
2017-08-05T12:17:23.714Z,52.80
2017-08-05T12:19:52.036Z,52.90
2017-08-05T12:22:20.310Z,52.60
2017-08-05T12:24:48.585Z,53.20
2017-08-05T12:27:17.631Z,54.50
2017-08-05T12:29:45.910Z,53.10
2017-08-05T12:32:14.196Z,54.00
2017-08-05T12:34:43.245Z,53.80
2017-08-05T12:39:50.035Z,53.80
2017-08-05T12:42:19.507Z,53.40
2017-08-05T12:44:48.959Z,54.00
2017-08-05T12:47:18.072Z,53.30
2017-08-05T12:49:47.479Z,52.70
2017-08-05T12:52:17.586Z,53.60
2017-08-05T12:54:47.366Z,52.60
2017-08-05T12:57:16.529Z,52.60
2017-08-05T12:59:45.677Z,58.40
2017-08-05T13:02:14.988Z,58.40
2017-08-05T13:04:43.299Z,65.40
2017-08-05T13:07:11.640Z,71.40
2017-08-05T13:09:39.950Z,78.40
2017-08-05T13:12:08.232Z,86.60
2017-08-05T13:14:36.545Z,98.10
2017-08-05T13:17:05.704Z,98.50
2017-08-05T13:19:33.987Z,95.40
2017-08-05T13:22:02.314Z,99.90
2017-08-05T13:24:31.363Z,99.90
2017-08-05T13:26:59.651Z,99.90
2017-08-05T13:29:28.726Z,99.90
2017-08-05T13:31:56.998Z,99.90
2017-08-05T13:34:25.287Z,99.90
2017-08-05T13:36:54.367Z,99.90
2017-08-05T13:39:22.657Z,99.90
2017-08-05T13:41:51.026Z,99.90
2017-08-05T13:44:19.350Z,99.90
2017-08-05T13:46:47.623Z,99.90
2017-08-05T13:49:16.666Z,96.70
2017-08-05T13:51:44.995Z,96.90
2017-08-05T13:54:13.287Z,93.20
2017-08-05T13:56:41.571Z,97.80
2017-08-05T13:59:09.927Z,89.50
2017-08-05T14:01:38.222Z,90.80
2017-08-05T14:04:06.511Z,86.20
2017-08-05T14:06:34.831Z,89.80
2017-08-05T14:09:03.106Z,95.10
2017-08-05T14:11:31.386Z,92.40
2017-08-05T14:13:59.706Z,85.10
2017-08-05T14:16:27.979Z,84.20
2017-08-05T14:18:56.254Z,81.20
2017-08-05T14:21:26.219Z,70.80
2017-08-05T14:23:54.506Z,70.70
2017-08-05T14:26:22.795Z,70.70
2017-08-05T14:28:51.115Z,70.80
2017-08-05T14:31:20.162Z,67.60
2017-08-05T14:33:48.455Z,67.50
2017-08-05T14:36:16.789Z,66.70
2017-08-05T14:41:14.706Z,61.90
2017-08-05T14:43:43.037Z,67.40
2017-08-05T14:46:12.084Z,64.50
2017-08-05T14:48:41.239Z,65.80
2017-08-05T14:51:09.515Z,66.40
2017-08-05T14:53:38.571Z,63.70
2017-08-05T14:56:06.900Z,64.00
2017-08-05T14:58:35.191Z,60.50
2017-08-05T15:01:03.492Z,58.60
2017-08-05T15:03:31.813Z,60.90
2017-08-05T15:06:00.098Z,62.00
2017-08-05T15:08:28.393Z,58.50
2017-08-05T15:10:56.722Z,59.40
2017-08-05T15:13:25.024Z,62.20
2017-08-05T15:15:54.118Z,55.90
2017-08-05T15:18:23.665Z,56.50
2017-08-05T15:20:51.992Z,54.80
2017-08-05T15:23:20.313Z,53.80
2017-08-05T15:25:49.377Z,55.40
2017-08-05T15:28:17.663Z,50.20
2017-08-05T15:30:45.988Z,48.20
2017-08-05T15:33:14.323Z,48.10
2017-08-05T15:35:43.399Z,45.40
2017-08-05T15:38:11.690Z,45.10
2017-08-05T15:40:40.067Z,45.90
2017-08-05T15:43:08.380Z,47.60
2017-08-05T15:45:36.667Z,48.80
2017-08-05T15:48:05.745Z,45.40
2017-08-05T15:50:34.036Z,45.40
2017-08-05T15:53:02.371Z,47.00
2017-08-05T15:55:30.668Z,45.90
2017-08-05T15:57:58.962Z,45.40
2017-08-05T16:00:27.288Z,47.10
2017-08-05T16:02:56.348Z,48.60
2017-08-05T16:05:24.634Z,48.50
2017-08-05T16:07:52.955Z,44.40
2017-08-05T16:10:21.265Z,47.20
2017-08-05T16:12:49.578Z,49.00
2017-08-05T16:15:17.894Z,49.40
2017-08-05T16:17:46.188Z,51.40
2017-08-05T16:20:15.580Z,53.10
2017-08-05T16:22:43.944Z,54.00
2017-08-05T16:25:12.271Z,54.10
2017-08-05T16:27:40.572Z,54.70
2017-08-05T16:30:10.384Z,51.80
2017-08-05T16:32:38.675Z,52.50
2017-08-05T16:35:06.956Z,52.50
2017-08-05T16:37:35.284Z,53.20
2017-08-05T16:40:03.571Z,53.00
2017-08-05T16:42:31.870Z,52.20
2017-08-05T16:45:00.196Z,51.40
2017-08-05T16:47:28.486Z,52.70
2017-08-05T16:49:56.763Z,53.40
2017-08-05T16:52:25.092Z,54.10
2017-08-05T16:54:53.375Z,54.50
2017-08-05T16:57:21.680Z,55.50
2017-08-05T16:59:50.022Z,54.60
2017-08-05T17:02:18.310Z,55.10
2017-08-05T17:04:46.595Z,56.60
2017-08-05T17:07:14.919Z,54.90
2017-08-05T17:09:43.223Z,54.90
2017-08-05T17:12:11.520Z,55.20
2017-08-05T17:14:39.854Z,54.40
2017-08-05T17:17:08.146Z,55.80
2017-08-05T17:19:37.204Z,56.70
2017-08-05T17:22:05.522Z,55.90
2017-08-05T17:24:33.807Z,56.40
2017-08-05T17:27:02.136Z,55.60
2017-08-05T17:29:30.479Z,55.80
2017-08-05T17:31:58.768Z,56.20
2017-08-05T17:34:27.091Z,55.60
2017-08-05T17:36:56.151Z,57.60
2017-08-05T17:39:24.426Z,57.60
2017-08-05T17:41:52.752Z,56.20
2017-08-05T17:44:21.037Z,57.10
2017-08-05T17:46:49.338Z,57.00
2017-08-05T17:49:17.657Z,57.20
2017-08-05T17:51:45.945Z,56.50
2017-08-05T17:54:14.253Z,56.10
2017-08-05T17:56:42.579Z,55.20
2017-08-05T17:59:10.895Z,52.40
2017-08-05T18:01:39.198Z,53.50
2017-08-05T18:04:07.549Z,54.60
2017-08-05T18:06:35.872Z,52.40
2017-08-05T18:09:04.206Z,54.00
2017-08-05T18:11:32.553Z,52.80
2017-08-05T18:14:01.596Z,54.70
2017-08-05T18:16:29.874Z,54.60
2017-08-05T18:18:58.976Z,55.90
2017-08-05T18:21:27.287Z,55.80
2017-08-05T18:23:56.340Z,56.50
2017-08-05T18:26:24.663Z,56.50
2017-08-05T18:28:52.940Z,55.50
2017-08-05T18:31:21.223Z,56.10
2017-08-05T18:33:50.294Z,55.90
2017-08-05T18:36:18.652Z,55.80
2017-08-05T18:38:46.983Z,56.30
2017-08-05T18:41:15.259Z,57.10
2017-08-05T18:43:43.542Z,57.40
2017-08-05T18:46:11.872Z,57.70
2017-08-05T18:48:40.163Z,56.50
2017-08-05T18:51:09.207Z,55.90
2017-08-05T18:53:37.536Z,56.10
2017-08-05T18:56:05.831Z,57.30
2017-08-05T18:58:34.106Z,57.80
2017-08-05T19:01:02.423Z,56.60
2017-08-05T19:03:30.703Z,57.50
2017-08-05T19:05:59.005Z,55.30
2017-08-05T19:08:27.331Z,55.40
2017-08-05T19:10:55.623Z,55.50
2017-08-05T19:13:23.903Z,54.40
2017-08-05T19:15:52.222Z,53.60
2017-08-05T19:18:20.502Z,54.20
2017-08-05T19:20:48.790Z,54.30
2017-08-05T19:23:17.110Z,54.90
2017-08-05T19:25:46.156Z,54.50
2017-08-05T19:28:14.446Z,54.50
2017-08-05T19:30:42.778Z,53.20
2017-08-05T19:33:11.064Z,52.70
2017-08-05T19:35:39.411Z,53.40
2017-08-05T19:38:07.738Z,54.00
2017-08-05T19:40:36.032Z,54.40
2017-08-05T19:43:05.083Z,55.60
2017-08-05T19:45:33.405Z,55.60
2017-08-05T19:48:01.683Z,55.00
2017-08-05T19:50:29.971Z,54.00
2017-08-05T19:52:58.315Z,55.60
2017-08-05T19:55:26.600Z,56.10
2017-08-05T19:57:54.885Z,57.50
2017-08-05T20:00:23.223Z,55.00
2017-08-05T20:02:51.496Z,55.50
2017-08-05T20:05:19.783Z,54.40
2017-08-05T20:07:48.109Z,54.20
2017-08-05T20:10:16.423Z,55.00
2017-08-05T20:12:44.711Z,53.80
2017-08-05T20:15:13.043Z,54.60
2017-08-05T20:17:41.323Z,55.00
2017-08-05T20:20:09.615Z,54.90
2017-08-05T20:22:37.976Z,54.10
2017-08-05T20:25:06.263Z,55.50
2017-08-05T20:27:34.587Z,53.20
2017-08-05T20:30:02.897Z,52.90
2017-08-05T20:32:31.179Z,53.80
2017-08-05T20:34:59.467Z,54.40
2017-08-05T20:37:27.811Z,54.40
2017-08-05T20:39:56.895Z,54.80
2017-08-05T20:42:25.333Z,55.10
2017-08-05T20:44:54.419Z,53.60
2017-08-05T20:47:22.694Z,53.60
2017-08-05T20:49:50.971Z,54.40
2017-08-05T20:52:19.363Z,54.80
2017-08-05T20:54:48.425Z,54.90
2017-08-05T20:57:16.721Z,54.80
2017-08-05T20:59:45.092Z,53.90
2017-08-05T21:02:14.142Z,52.50
2017-08-05T21:04:42.483Z,52.90
2017-08-05T21:07:10.811Z,53.20
2017-08-05T21:09:39.882Z,54.10
2017-08-05T21:12:08.179Z,53.20
2017-08-05T21:14:36.515Z,53.50
2017-08-05T21:17:04.813Z,54.70
2017-08-05T21:19:33.100Z,54.00
2017-08-05T21:22:01.425Z,54.20
2017-08-05T21:24:29.722Z,54.60
2017-08-05T21:26:58.007Z,55.00
2017-08-05T21:29:26.315Z,55.70
2017-08-05T21:31:54.604Z,55.90
2017-08-05T21:34:22.908Z,56.30
2017-08-05T21:36:51.219Z,56.60
2017-08-05T21:39:19.520Z,56.70
2017-08-05T21:41:47.856Z,57.00
2017-08-05T21:44:16.921Z,58.40
2017-08-05T21:46:45.212Z,57.60
2017-08-05T21:49:13.531Z,57.70
2017-08-05T21:51:42.384Z,58.50
2017-08-05T21:54:10.681Z,58.90
2017-08-05T21:56:39.022Z,58.80
2017-08-05T21:59:08.067Z,58.50
2017-08-05T22:01:36.369Z,58.50
2017-08-05T22:04:04.679Z,57.00
2017-08-05T22:06:32.971Z,56.90
2017-08-05T22:09:01.254Z,57.70
2017-08-05T22:11:29.578Z,57.50
2017-08-05T22:13:57.862Z,58.30
2017-08-05T22:16:26.932Z,56.40
2017-08-05T22:18:55.251Z,56.90
2017-08-05T22:21:23.527Z,58.30
2017-08-05T22:23:51.823Z,58.30
2017-08-05T22:26:20.141Z,57.90
2017-08-05T22:28:48.443Z,58.00
2017-08-05T22:31:16.735Z,57.60
2017-08-05T22:33:45.071Z,59.00
2017-08-05T22:36:14.123Z,60.20
2017-08-05T22:38:42.405Z,59.80
2017-08-05T22:41:10.768Z,60.90
2017-08-05T22:43:39.051Z,61.70
2017-08-05T22:46:07.338Z,62.30
2017-08-05T22:48:35.674Z,63.00
2017-08-05T22:51:04.732Z,62.10
2017-08-05T22:53:33.021Z,62.90
2017-08-05T22:56:02.119Z,62.10
2017-08-05T22:58:30.404Z,61.50
2017-08-05T23:00:59.450Z,61.70
2017-08-05T23:03:27.780Z,62.30
2017-08-05T23:05:56.068Z,62.30
2017-08-05T23:08:25.119Z,62.70
2017-08-05T23:10:53.439Z,62.60
2017-08-05T23:13:21.725Z,63.80
2017-08-05T23:15:50.019Z,64.10
2017-08-05T23:18:18.339Z,64.30
2017-08-05T23:20:46.617Z,64.10
2017-08-05T23:23:14.915Z,64.00
2017-08-05T23:25:43.255Z,65.00
2017-08-05T23:28:11.543Z,64.80
2017-08-05T23:30:39.838Z,65.80
2017-08-05T23:33:08.166Z,64.30
2017-08-05T23:35:36.444Z,62.50
2017-08-05T23:38:04.727Z,63.50
2017-08-05T23:40:33.051Z,63.60
2017-08-05T23:43:01.340Z,63.10
2017-08-05T23:45:29.630Z,63.80
2017-08-05T23:47:57.947Z,64.40
2017-08-05T23:50:26.239Z,65.00
2017-08-05T23:52:54.535Z,63.40
2017-08-05T23:55:22.850Z,64.10
2017-08-05T23:57:51.144Z,64.90
